sensor_id;sensor_type;location;lat;lon;timestamp;temperature;humidity
52963;DHT22;38827;53.024;6.596;2023-05-13T00:01:14;12.90;65.10
52963;DHT22;38827;53.024;6.596;2023-05-13T00:03:40;12.90;65.20
52963;DHT22;38827;53.024;6.596;2023-05-13T00:06:06;12.80;65.30
52963;DHT22;38827;53.024;6.596;2023-05-13T00:08:32;12.80;65.60
52963;DHT22;38827;53.024;6.596;2023-05-13T00:10:58;12.80;65.60
52963;DHT22;38827;53.024;6.596;2023-05-13T00:13:24;12.80;65.70
52963;DHT22;38827;53.024;6.596;2023-05-13T00:15:49;12.70;65.90
52963;DHT22;38827;53.024;6.596;2023-05-13T00:18:15;12.70;66.00
52963;DHT22;38827;53.024;6.596;2023-05-13T00:20:41;12.70;66.10
52963;DHT22;38827;53.024;6.596;2023-05-13T00:23:07;12.70;66.30
52963;DHT22;38827;53.024;6.596;2023-05-13T00:25:33;12.70;66.40
52963;DHT22;38827;53.024;6.596;2023-05-13T00:27:59;12.60;66.40
52963;DHT22;38827;53.024;6.596;2023-05-13T00:30:24;12.60;66.80
52963;DHT22;38827;53.024;6.596;2023-05-13T00:32:50;12.50;66.80
52963;DHT22;38827;53.024;6.596;2023-05-13T00:35:16;12.50;67.00
52963;DHT22;38827;53.024;6.596;2023-05-13T00:37:42;12.50;67.20
52963;DHT22;38827;53.024;6.596;2023-05-13T00:40:28;12.50;67.20
52963;DHT22;38827;53.024;6.596;2023-05-13T00:42:54;12.50;67.20
52963;DHT22;38827;53.024;6.596;2023-05-13T00:45:20;12.40;67.40
52963;DHT22;38827;53.024;6.596;2023-05-13T00:47:46;12.40;67.40
52963;DHT22;38827;53.024;6.596;2023-05-13T00:50:13;12.40;67.30
52963;DHT22;38827;53.024;6.596;2023-05-13T00:52:40;12.30;67.40
52963;DHT22;38827;53.024;6.596;2023-05-13T00:55:07;12.30;67.50
52963;DHT22;38827;53.024;6.596;2023-05-13T00:57:33;12.30;67.60
52963;DHT22;38827;53.024;6.596;2023-05-13T00:59:59;12.30;67.70
52963;DHT22;38827;53.024;6.596;2023-05-13T01:11:00;12.20;67.50
52963;DHT22;38827;53.024;6.596;2023-05-13T01:13:30;12.20;67.50
52963;DHT22;38827;53.024;6.596;2023-05-13T01:16:08;12.20;67.80
52963;DHT22;38827;53.024;6.596;2023-05-13T01:18:38;12.20;67.90
52963;DHT22;38827;53.024;6.596;2023-05-13T01:21:04;12.10;68.20
52963;DHT22;38827;53.024;6.596;2023-05-13T01:23:31;12.10;68.20
52963;DHT22;38827;53.024;6.596;2023-05-13T01:25:56;12.10;68.40
52963;DHT22;38827;53.024;6.596;2023-05-13T01:28:22;12.10;68.40
52963;DHT22;38827;53.024;6.596;2023-05-13T01:30:48;12.00;68.40
52963;DHT22;38827;53.024;6.596;2023-05-13T01:33:16;12.10;68.50
52963;DHT22;38827;53.024;6.596;2023-05-13T01:35:43;12.00;68.60
52963;DHT22;38827;53.024;6.596;2023-05-13T01:38:09;12.00;68.60
52963;DHT22;38827;53.024;6.596;2023-05-13T01:40:35;12.00;68.70
52963;DHT22;38827;53.024;6.596;2023-05-13T01:43:02;11.90;68.80
52963;DHT22;38827;53.024;6.596;2023-05-13T01:45:28;11.90;68.80
52963;DHT22;38827;53.024;6.596;2023-05-13T01:47:54;11.90;69.00
52963;DHT22;38827;53.024;6.596;2023-05-13T01:50:20;11.90;69.00
52963;DHT22;38827;53.024;6.596;2023-05-13T01:52:46;11.90;69.20
52963;DHT22;38827;53.024;6.596;2023-05-13T01:55:11;11.90;69.30
52963;DHT22;38827;53.024;6.596;2023-05-13T01:57:37;11.80;69.30
52963;DHT22;38827;53.024;6.596;2023-05-13T02:00:03;11.80;69.30
52963;DHT22;38827;53.024;6.596;2023-05-13T02:02:29;11.80;69.60
52963;DHT22;38827;53.024;6.596;2023-05-13T02:04:55;11.80;69.60
52963;DHT22;38827;53.024;6.596;2023-05-13T02:07:20;11.80;69.80
52963;DHT22;38827;53.024;6.596;2023-05-13T02:09:46;11.80;69.90
52963;DHT22;38827;53.024;6.596;2023-05-13T02:12:12;11.70;70.20
52963;DHT22;38827;53.024;6.596;2023-05-13T02:14:37;11.70;70.30
52963;DHT22;38827;53.024;6.596;2023-05-13T02:17:03;11.70;70.30
52963;DHT22;38827;53.024;6.596;2023-05-13T02:19:29;11.70;70.40
52963;DHT22;38827;53.024;6.596;2023-05-13T02:21:55;11.60;70.60
52963;DHT22;38827;53.024;6.596;2023-05-13T02:24:20;11.60;70.70
52963;DHT22;38827;53.024;6.596;2023-05-13T02:26:46;11.60;70.80
52963;DHT22;38827;53.024;6.596;2023-05-13T02:29:12;11.60;70.90
52963;DHT22;38827;53.024;6.596;2023-05-13T02:31:38;11.60;71.10
52963;DHT22;38827;53.024;6.596;2023-05-13T02:34:05;11.50;71.40
52963;DHT22;38827;53.024;6.596;2023-05-13T02:36:31;11.50;70.90
52963;DHT22;38827;53.024;6.596;2023-05-13T02:38:56;11.40;71.20
52963;DHT22;38827;53.024;6.596;2023-05-13T02:41:22;11.40;71.30
52963;DHT22;38827;53.024;6.596;2023-05-13T02:43:47;11.40;71.70
52963;DHT22;38827;53.024;6.596;2023-05-13T02:46:13;11.40;71.70
52963;DHT22;38827;53.024;6.596;2023-05-13T02:48:39;11.40;71.80
52963;DHT22;38827;53.024;6.596;2023-05-13T02:51:04;11.40;71.90
52963;DHT22;38827;53.024;6.596;2023-05-13T02:53:30;11.30;72.10
52963;DHT22;38827;53.024;6.596;2023-05-13T02:55:56;11.30;72.10
52963;DHT22;38827;53.024;6.596;2023-05-13T02:58:21;11.30;72.20
52963;DHT22;38827;53.024;6.596;2023-05-13T03:00:47;11.30;72.40
52963;DHT22;38827;53.024;6.596;2023-05-13T03:03:13;11.30;72.60
52963;DHT22;38827;53.024;6.596;2023-05-13T03:05:38;11.20;72.70
52963;DHT22;38827;53.024;6.596;2023-05-13T03:08:04;11.20;72.70
52963;DHT22;38827;53.024;6.596;2023-05-13T03:10:30;11.20;72.80
52963;DHT22;38827;53.024;6.596;2023-05-13T03:12:55;11.20;72.90
52963;DHT22;38827;53.024;6.596;2023-05-13T03:15:21;11.10;73.10
52963;DHT22;38827;53.024;6.596;2023-05-13T03:17:47;11.10;73.40
52963;DHT22;38827;53.024;6.596;2023-05-13T03:20:12;11.10;73.50
52963;DHT22;38827;53.024;6.596;2023-05-13T03:22:38;11.10;73.50
52963;DHT22;38827;53.024;6.596;2023-05-13T03:25:06;11.10;73.60
52963;DHT22;38827;53.024;6.596;2023-05-13T03:27:32;11.00;73.90
52963;DHT22;38827;53.024;6.596;2023-05-13T03:29:58;11.00;73.90
52963;DHT22;38827;53.024;6.596;2023-05-13T03:32:23;11.00;74.10
52963;DHT22;38827;53.024;6.596;2023-05-13T03:34:55;11.00;74.40
52963;DHT22;38827;53.024;6.596;2023-05-13T03:37:22;11.00;74.50
52963;DHT22;38827;53.024;6.596;2023-05-13T03:39:47;10.90;74.50
52963;DHT22;38827;53.024;6.596;2023-05-13T03:42:13;10.90;74.20
52963;DHT22;38827;53.024;6.596;2023-05-13T03:44:39;11.00;74.30
52963;DHT22;38827;53.024;6.596;2023-05-13T03:47:04;11.00;74.60
52963;DHT22;38827;53.024;6.596;2023-05-13T03:49:30;10.90;74.70
52963;DHT22;38827;53.024;6.596;2023-05-13T03:51:56;11.00;74.70
52963;DHT22;38827;53.024;6.596;2023-05-13T03:54:21;10.90;74.80
52963;DHT22;38827;53.024;6.596;2023-05-13T03:56:47;11.00;75.00
52963;DHT22;38827;53.024;6.596;2023-05-13T03:59:13;11.00;75.10
52963;DHT22;38827;53.024;6.596;2023-05-13T04:01:38;10.90;75.20
52963;DHT22;38827;53.024;6.596;2023-05-13T04:04:04;11.00;75.30
52963;DHT22;38827;53.024;6.596;2023-05-13T04:06:30;11.00;75.40
52963;DHT22;38827;53.024;6.596;2023-05-13T04:08:56;11.00;75.30
52963;DHT22;38827;53.024;6.596;2023-05-13T04:11:22;11.00;75.40
52963;DHT22;38827;53.024;6.596;2023-05-13T04:13:47;11.00;75.50
52963;DHT22;38827;53.024;6.596;2023-05-13T04:16:13;11.00;75.70
52963;DHT22;38827;53.024;6.596;2023-05-13T04:18:39;11.00;75.70
52963;DHT22;38827;53.024;6.596;2023-05-13T04:21:08;11.00;75.80
52963;DHT22;38827;53.024;6.596;2023-05-13T04:23:34;11.10;75.90
52963;DHT22;38827;53.024;6.596;2023-05-13T04:26:00;11.10;75.80
52963;DHT22;38827;53.024;6.596;2023-05-13T04:28:26;11.10;75.80
52963;DHT22;38827;53.024;6.596;2023-05-13T04:30:52;11.20;75.70
52963;DHT22;38827;53.024;6.596;2023-05-13T04:33:18;11.20;75.70
52963;DHT22;38827;53.024;6.596;2023-05-13T04:35:44;11.30;75.60
52963;DHT22;38827;53.024;6.596;2023-05-13T04:38:10;11.30;75.60
52963;DHT22;38827;53.024;6.596;2023-05-13T04:40:36;11.30;75.70
52963;DHT22;38827;53.024;6.596;2023-05-13T04:43:02;11.40;75.60
52963;DHT22;38827;53.024;6.596;2023-05-13T04:45:27;11.50;75.50
52963;DHT22;38827;53.024;6.596;2023-05-13T04:47:53;11.50;75.30
52963;DHT22;38827;53.024;6.596;2023-05-13T04:50:19;11.60;75.20
52963;DHT22;38827;53.024;6.596;2023-05-13T04:52:45;11.70;75.20
52963;DHT22;38827;53.024;6.596;2023-05-13T04:55:12;11.70;75.00
52963;DHT22;38827;53.024;6.596;2023-05-13T04:57:37;11.80;74.80
52963;DHT22;38827;53.024;6.596;2023-05-13T05:00:03;11.90;74.70
52963;DHT22;38827;53.024;6.596;2023-05-13T05:02:29;11.90;74.70
52963;DHT22;38827;53.024;6.596;2023-05-13T05:04:56;12.00;74.60
52963;DHT22;38827;53.024;6.596;2023-05-13T05:07:21;12.10;74.60
52963;DHT22;38827;53.024;6.596;2023-05-13T05:09:47;12.20;74.50
52963;DHT22;38827;53.024;6.596;2023-05-13T05:12:13;12.30;74.40
52963;DHT22;38827;53.024;6.596;2023-05-13T05:14:39;12.40;74.20
52963;DHT22;38827;53.024;6.596;2023-05-13T05:17:05;12.50;74.00
52963;DHT22;38827;53.024;6.596;2023-05-13T05:19:31;12.60;74.00
52963;DHT22;38827;53.024;6.596;2023-05-13T05:21:56;12.60;73.90
52963;DHT22;38827;53.024;6.596;2023-05-13T05:24:22;12.70;73.90
52963;DHT22;38827;53.024;6.596;2023-05-13T05:26:48;12.80;73.70
52963;DHT22;38827;53.024;6.596;2023-05-13T05:29:14;12.90;73.40
52963;DHT22;38827;53.024;6.596;2023-05-13T05:31:39;13.00;73.20
52963;DHT22;38827;53.024;6.596;2023-05-13T05:34:05;13.00;73.10
52963;DHT22;38827;53.024;6.596;2023-05-13T05:36:31;13.10;73.00
52963;DHT22;38827;53.024;6.596;2023-05-13T05:38:57;13.30;73.10
52963;DHT22;38827;53.024;6.596;2023-05-13T05:41:22;13.40;72.90
52963;DHT22;38827;53.024;6.596;2023-05-13T05:43:48;13.50;72.70
52963;DHT22;38827;53.024;6.596;2023-05-13T05:46:15;13.50;72.40
52963;DHT22;38827;53.024;6.596;2023-05-13T05:48:40;13.70;72.00
52963;DHT22;38827;53.024;6.596;2023-05-13T05:51:06;13.80;71.90
52963;DHT22;38827;53.024;6.596;2023-05-13T05:53:33;13.90;71.40
52963;DHT22;38827;53.024;6.596;2023-05-13T05:55:59;13.90;71.10
52963;DHT22;38827;53.024;6.596;2023-05-13T05:58:25;14.10;70.60
52963;DHT22;38827;53.024;6.596;2023-05-13T06:00:51;14.10;69.80
52963;DHT22;38827;53.024;6.596;2023-05-13T06:03:19;14.20;69.40
52963;DHT22;38827;53.024;6.596;2023-05-13T06:05:45;14.30;68.80
52963;DHT22;38827;53.024;6.596;2023-05-13T06:08:11;14.50;68.20
52963;DHT22;38827;53.024;6.596;2023-05-13T06:10:36;14.60;67.90
52963;DHT22;38827;53.024;6.596;2023-05-13T06:13:03;14.70;67.30
52963;DHT22;38827;53.024;6.596;2023-05-13T06:15:29;14.70;66.60
52963;DHT22;38827;53.024;6.596;2023-05-13T06:17:55;14.80;66.30
52963;DHT22;38827;53.024;6.596;2023-05-13T06:20:21;14.90;65.40
52963;DHT22;38827;53.024;6.596;2023-05-13T06:22:47;15.00;65.00
52963;DHT22;38827;53.024;6.596;2023-05-13T06:25:12;15.10;64.40
52963;DHT22;38827;53.024;6.596;2023-05-13T06:27:38;15.20;64.00
52963;DHT22;38827;53.024;6.596;2023-05-13T06:30:04;15.30;63.60
52963;DHT22;38827;53.024;6.596;2023-05-13T06:32:31;15.40;63.20
52963;DHT22;38827;53.024;6.596;2023-05-13T06:34:56;15.40;63.00
52963;DHT22;38827;53.024;6.596;2023-05-13T06:37:22;15.50;62.60
52963;DHT22;38827;53.024;6.596;2023-05-13T06:39:48;15.60;62.40
52963;DHT22;38827;53.024;6.596;2023-05-13T06:42:14;15.60;62.00
52963;DHT22;38827;53.024;6.596;2023-05-13T06:44:40;15.80;61.60
52963;DHT22;38827;53.024;6.596;2023-05-13T06:47:05;15.90;61.50
52963;DHT22;38827;53.024;6.596;2023-05-13T06:49:32;16.00;61.50
52963;DHT22;38827;53.024;6.596;2023-05-13T06:51:57;16.10;61.30
52963;DHT22;38827;53.024;6.596;2023-05-13T06:54:23;16.20;61.10
52963;DHT22;38827;53.024;6.596;2023-05-13T06:56:50;16.30;60.50
52963;DHT22;38827;53.024;6.596;2023-05-13T06:59:16;16.40;59.70
52963;DHT22;38827;53.024;6.596;2023-05-13T07:01:42;16.50;59.40
52963;DHT22;38827;53.024;6.596;2023-05-13T07:04:07;16.60;59.40
52963;DHT22;38827;53.024;6.596;2023-05-13T07:06:33;16.80;58.70
52963;DHT22;38827;53.024;6.596;2023-05-13T07:08:59;16.90;58.30
52963;DHT22;38827;53.024;6.596;2023-05-13T07:11:25;17.00;58.20
52963;DHT22;38827;53.024;6.596;2023-05-13T07:13:53;17.10;57.40
52963;DHT22;38827;53.024;6.596;2023-05-13T07:16:19;17.20;56.90
52963;DHT22;38827;53.024;6.596;2023-05-13T07:18:44;17.40;56.60
52963;DHT22;38827;53.024;6.596;2023-05-13T07:21:10;17.50;56.30
52963;DHT22;38827;53.024;6.596;2023-05-13T07:23:36;17.70;55.90
52963;DHT22;38827;53.024;6.596;2023-05-13T07:26:02;17.90;55.40
52963;DHT22;38827;53.024;6.596;2023-05-13T07:28:27;18.00;55.10
52963;DHT22;38827;53.024;6.596;2023-05-13T07:30:53;18.20;54.80
52963;DHT22;38827;53.024;6.596;2023-05-13T07:33:19;18.40;54.40
52963;DHT22;38827;53.024;6.596;2023-05-13T07:35:44;18.50;54.00
52963;DHT22;38827;53.024;6.596;2023-05-13T07:38:10;18.60;53.50
52963;DHT22;38827;53.024;6.596;2023-05-13T07:40:36;18.70;52.90
52963;DHT22;38827;53.024;6.596;2023-05-13T07:43:02;18.80;52.40
52963;DHT22;38827;53.024;6.596;2023-05-13T07:45:28;18.90;52.00
52963;DHT22;38827;53.024;6.596;2023-05-13T07:47:54;19.00;52.10
52963;DHT22;38827;53.024;6.596;2023-05-13T07:50:19;19.20;51.70
52963;DHT22;38827;53.024;6.596;2023-05-13T07:52:45;19.30;51.70
52963;DHT22;38827;53.024;6.596;2023-05-13T07:55:14;19.50;50.90
52963;DHT22;38827;53.024;6.596;2023-05-13T07:57:40;19.70;50.00
52963;DHT22;38827;53.024;6.596;2023-05-13T08:00:06;19.90;50.00
52963;DHT22;38827;53.024;6.596;2023-05-13T08:02:32;20.10;49.10
52963;DHT22;38827;53.024;6.596;2023-05-13T08:04:59;20.20;48.50
52963;DHT22;38827;53.024;6.596;2023-05-13T08:07:25;20.30;48.70
52963;DHT22;38827;53.024;6.596;2023-05-13T08:09:51;20.40;49.20
52963;DHT22;38827;53.024;6.596;2023-05-13T08:12:17;20.70;48.90
52963;DHT22;38827;53.024;6.596;2023-05-13T08:14:42;20.90;48.70
52963;DHT22;38827;53.024;6.596;2023-05-13T08:17:08;21.00;48.30
52963;DHT22;38827;53.024;6.596;2023-05-13T08:19:34;21.20;47.50
52963;DHT22;38827;53.024;6.596;2023-05-13T08:22:00;21.30;47.40
52963;DHT22;38827;53.024;6.596;2023-05-13T08:24:26;21.30;46.80
52963;DHT22;38827;53.024;6.596;2023-05-13T08:26:52;21.40;46.10
52963;DHT22;38827;53.024;6.596;2023-05-13T08:29:17;21.60;45.80
52963;DHT22;38827;53.024;6.596;2023-05-13T08:31:43;21.70;45.10
52963;DHT22;38827;53.024;6.596;2023-05-13T08:34:09;21.90;44.60
52963;DHT22;38827;53.024;6.596;2023-05-13T08:36:34;22.00;44.20
52963;DHT22;38827;53.024;6.596;2023-05-13T08:39:00;22.10;44.50
52963;DHT22;38827;53.024;6.596;2023-05-13T08:41:26;22.20;44.80
52963;DHT22;38827;53.024;6.596;2023-05-13T08:43:53;22.30;44.50
52963;DHT22;38827;53.024;6.596;2023-05-13T08:46:22;22.40;44.10
52963;DHT22;38827;53.024;6.596;2023-05-13T08:48:54;22.60;44.20
52963;DHT22;38827;53.024;6.596;2023-05-13T08:51:20;22.70;44.00
52963;DHT22;38827;53.024;6.596;2023-05-13T08:53:46;22.90;43.40
52963;DHT22;38827;53.024;6.596;2023-05-13T08:56:13;23.10;43.30
52963;DHT22;38827;53.024;6.596;2023-05-13T08:58:39;23.30;42.60
52963;DHT22;38827;53.024;6.596;2023-05-13T09:01:05;23.40;42.20
52963;DHT22;38827;53.024;6.596;2023-05-13T09:03:32;23.60;41.60
52963;DHT22;38827;53.024;6.596;2023-05-13T09:06:00;23.70;40.90
52963;DHT22;38827;53.024;6.596;2023-05-13T09:08:26;23.80;40.90
52963;DHT22;38827;53.024;6.596;2023-05-13T09:10:52;24.00;40.80
52963;DHT22;38827;53.024;6.596;2023-05-13T09:13:18;24.10;40.40
52963;DHT22;38827;53.024;6.596;2023-05-13T09:15:44;24.30;40.10
52963;DHT22;38827;53.024;6.596;2023-05-13T09:18:10;24.50;39.90
52963;DHT22;38827;53.024;6.596;2023-05-13T09:20:36;24.70;40.00
52963;DHT22;38827;53.024;6.596;2023-05-13T09:23:09;24.90;40.00
52963;DHT22;38827;53.024;6.596;2023-05-13T09:25:36;25.10;39.00
52963;DHT22;38827;53.024;6.596;2023-05-13T09:28:04;25.10;37.90
52963;DHT22;38827;53.024;6.596;2023-05-13T09:30:35;25.10;37.60
52963;DHT22;38827;53.024;6.596;2023-05-13T09:33:16;25.20;37.10
52963;DHT22;38827;53.024;6.596;2023-05-13T09:35:51;25.30;36.20
52963;DHT22;38827;53.024;6.596;2023-05-13T09:38:24;25.60;36.00
52963;DHT22;38827;53.024;6.596;2023-05-13T09:40:57;26.00;35.00
52963;DHT22;38827;53.024;6.596;2023-05-13T09:43:24;26.50;34.80
52963;DHT22;38827;53.024;6.596;2023-05-13T09:45:55;26.90;33.90
52963;DHT22;38827;53.024;6.596;2023-05-13T09:48:24;27.40;33.60
52963;DHT22;38827;53.024;6.596;2023-05-13T09:50:50;27.80;33.30
52963;DHT22;38827;53.024;6.596;2023-05-13T09:53:17;28.10;32.70
52963;DHT22;38827;53.024;6.596;2023-05-13T09:55:51;28.40;32.80
52963;DHT22;38827;53.024;6.596;2023-05-13T09:58:17;28.80;32.50
52963;DHT22;38827;53.024;6.596;2023-05-13T10:00:46;29.30;31.70
52963;DHT22;38827;53.024;6.596;2023-05-13T10:03:13;29.60;31.30
52963;DHT22;38827;53.024;6.596;2023-05-13T10:05:39;30.00;30.90
52963;DHT22;38827;53.024;6.596;2023-05-13T10:08:08;30.20;30.90
52963;DHT22;38827;53.024;6.596;2023-05-13T10:10:35;30.30;29.80
52963;DHT22;38827;53.024;6.596;2023-05-13T10:13:13;30.30;30.00
52963;DHT22;38827;53.024;6.596;2023-05-13T10:15:47;30.20;31.10
52963;DHT22;38827;53.024;6.596;2023-05-13T10:18:18;30.50;31.10
52963;DHT22;38827;53.024;6.596;2023-05-13T10:20:45;31.00;30.70
52963;DHT22;38827;53.024;6.596;2023-05-13T10:23:14;31.50;30.60
52963;DHT22;38827;53.024;6.596;2023-05-13T10:25:40;32.00;30.40
52963;DHT22;38827;53.024;6.596;2023-05-13T10:28:09;32.60;29.90
52963;DHT22;38827;53.024;6.596;2023-05-13T10:30:35;32.90;28.80
52963;DHT22;38827;53.024;6.596;2023-05-13T10:33:02;33.20;28.90
52963;DHT22;38827;53.024;6.596;2023-05-13T10:35:31;33.40;28.10
52963;DHT22;38827;53.024;6.596;2023-05-13T10:43:27;33.70;28.30
52963;DHT22;38827;53.024;6.596;2023-05-13T10:46:04;33.80;27.40
52963;DHT22;38827;53.024;6.596;2023-05-13T10:48:47;33.80;27.00
52963;DHT22;38827;53.024;6.596;2023-05-13T10:51:15;34.00;27.50
52963;DHT22;38827;53.024;6.596;2023-05-13T10:53:52;34.20;27.40
52963;DHT22;38827;53.024;6.596;2023-05-13T10:56:22;34.20;26.20
52963;DHT22;38827;53.024;6.596;2023-05-13T10:59:03;34.00;26.30
52963;DHT22;38827;53.024;6.596;2023-05-13T11:01:38;34.00;27.10
52963;DHT22;38827;53.024;6.596;2023-05-13T11:04:16;34.10;26.90
52963;DHT22;38827;53.024;6.596;2023-05-13T11:06:46;34.20;27.10
52963;DHT22;38827;53.024;6.596;2023-05-13T11:11:53;34.60;25.70
52963;DHT22;38827;53.024;6.596;2023-05-13T11:14:26;34.50;26.00
52963;DHT22;38827;53.024;6.596;2023-05-13T11:16:52;34.40;26.40
52963;DHT22;38827;53.024;6.596;2023-05-13T11:19:26;34.60;26.70
52963;DHT22;38827;53.024;6.596;2023-05-13T11:22:02;34.80;26.30
52963;DHT22;38827;53.024;6.596;2023-05-13T11:24:28;35.00;26.30
52963;DHT22;38827;53.024;6.596;2023-05-13T11:26:57;35.00;26.20
52963;DHT22;38827;53.024;6.596;2023-05-13T11:29:27;34.90;26.30
52963;DHT22;38827;53.024;6.596;2023-05-13T11:31:54;34.80;26.60
52963;DHT22;38827;53.024;6.596;2023-05-13T11:34:22;34.90;25.70
52963;DHT22;38827;53.024;6.596;2023-05-13T11:36:56;34.80;25.80
52963;DHT22;38827;53.024;6.596;2023-05-13T11:39:31;35.10;25.70
52963;DHT22;38827;53.024;6.596;2023-05-13T11:41:57;35.20;24.90
52963;DHT22;38827;53.024;6.596;2023-05-13T11:44:26;34.80;24.50
52963;DHT22;38827;53.024;6.596;2023-05-13T11:47:04;34.60;25.10
52963;DHT22;38827;53.024;6.596;2023-05-13T11:49:31;34.70;25.70
52963;DHT22;38827;53.024;6.596;2023-05-13T11:52:13;34.90;25.70
52963;DHT22;38827;53.024;6.596;2023-05-13T11:54:50;35.10;25.90
52963;DHT22;38827;53.024;6.596;2023-05-13T11:59:58;35.00;24.50
52963;DHT22;38827;53.024;6.596;2023-05-13T12:04:51;34.00;25.50
52963;DHT22;38827;53.024;6.596;2023-05-13T12:07:22;34.20;24.90
52963;DHT22;38827;53.024;6.596;2023-05-13T12:09:49;34.30;24.40
52963;DHT22;38827;53.024;6.596;2023-05-13T12:12:15;33.60;24.70
52963;DHT22;38827;53.024;6.596;2023-05-13T12:14:46;33.00;25.00
52963;DHT22;38827;53.024;6.596;2023-05-13T12:17:15;32.90;25.10
52963;DHT22;38827;53.024;6.596;2023-05-13T12:28:19;33.70;25.40
52963;DHT22;38827;53.024;6.596;2023-05-13T12:33:17;33.50;25.40
52963;DHT22;38827;53.024;6.596;2023-05-13T12:35:47;32.50;26.50
52963;DHT22;38827;53.024;6.596;2023-05-13T12:38:17;31.60;27.60
52963;DHT22;38827;53.024;6.596;2023-05-13T12:40:47;31.20;28.00
52963;DHT22;38827;53.024;6.596;2023-05-13T12:43:15;31.50;28.20
52963;DHT22;38827;53.024;6.596;2023-05-13T12:45:42;31.90;27.00
52963;DHT22;38827;53.024;6.596;2023-05-13T12:48:08;31.50;27.10
52963;DHT22;38827;53.024;6.596;2023-05-13T12:50:34;31.10;26.80
52963;DHT22;38827;53.024;6.596;2023-05-13T12:53:00;31.20;27.20
52963;DHT22;38827;53.024;6.596;2023-05-13T12:55:26;31.50;28.60
52963;DHT22;38827;53.024;6.596;2023-05-13T12:57:59;31.30;29.30
52963;DHT22;38827;53.024;6.596;2023-05-13T13:00:25;31.50;30.30
52963;DHT22;38827;53.024;6.596;2023-05-13T13:02:51;31.90;29.80
52963;DHT22;38827;53.024;6.596;2023-05-13T13:05:21;32.40;29.10
52963;DHT22;38827;53.024;6.596;2023-05-13T13:07:47;32.50;29.30
52963;DHT22;38827;53.024;6.596;2023-05-13T13:10:13;32.10;29.00
52963;DHT22;38827;53.024;6.596;2023-05-13T13:12:39;32.00;29.10
52963;DHT22;38827;53.024;6.596;2023-05-13T13:15:06;31.90;28.60
52963;DHT22;38827;53.024;6.596;2023-05-13T13:17:32;31.20;29.20
52963;DHT22;38827;53.024;6.596;2023-05-13T13:19:57;30.40;30.20
52963;DHT22;38827;53.024;6.596;2023-05-13T13:22:23;30.40;30.10
52963;DHT22;38827;53.024;6.596;2023-05-13T13:24:49;30.70;30.10
52963;DHT22;38827;53.024;6.596;2023-05-13T13:27:14;31.00;29.60
52963;DHT22;38827;53.024;6.596;2023-05-13T13:29:40;31.10;30.00
52963;DHT22;38827;53.024;6.596;2023-05-13T13:32:06;31.10;29.80
52963;DHT22;38827;53.024;6.596;2023-05-13T13:34:32;31.00;29.40
52963;DHT22;38827;53.024;6.596;2023-05-13T13:36:58;31.10;28.80
52963;DHT22;38827;53.024;6.596;2023-05-13T13:39:23;31.00;29.10
52963;DHT22;38827;53.024;6.596;2023-05-13T13:41:49;31.00;29.80
52963;DHT22;38827;53.024;6.596;2023-05-13T13:44:14;31.00;30.40
52963;DHT22;38827;53.024;6.596;2023-05-13T13:46:40;31.00;30.70
52963;DHT22;38827;53.024;6.596;2023-05-13T13:49:06;30.90;30.50
52963;DHT22;38827;53.024;6.596;2023-05-13T13:51:32;30.80;30.70
52963;DHT22;38827;53.024;6.596;2023-05-13T13:54:06;30.60;30.80
52963;DHT22;38827;53.024;6.596;2023-05-13T13:56:36;30.30;31.00
52963;DHT22;38827;53.024;6.596;2023-05-13T13:59:02;29.90;31.30
52963;DHT22;38827;53.024;6.596;2023-05-13T14:01:27;29.70;32.20
52963;DHT22;38827;53.024;6.596;2023-05-13T14:04:09;29.50;32.70
52963;DHT22;38827;53.024;6.596;2023-05-13T14:06:35;29.40;33.40
52963;DHT22;38827;53.024;6.596;2023-05-13T14:09:00;29.40;33.20
52963;DHT22;38827;53.024;6.596;2023-05-13T14:11:26;29.30;33.70
52963;DHT22;38827;53.024;6.596;2023-05-13T14:13:52;29.00;33.40
52963;DHT22;38827;53.024;6.596;2023-05-13T14:16:17;28.60;33.60
52963;DHT22;38827;53.024;6.596;2023-05-13T14:18:43;28.20;33.80
52963;DHT22;38827;53.024;6.596;2023-05-13T14:21:09;27.80;34.30
52963;DHT22;38827;53.024;6.596;2023-05-13T14:23:34;27.40;33.40
52963;DHT22;38827;53.024;6.596;2023-05-13T14:26:00;27.00;34.40
52963;DHT22;38827;53.024;6.596;2023-05-13T14:28:25;26.80;34.70
52963;DHT22;38827;53.024;6.596;2023-05-13T14:30:51;26.80;34.80
52963;DHT22;38827;53.024;6.596;2023-05-13T14:33:19;26.90;34.30
52963;DHT22;38827;53.024;6.596;2023-05-13T14:35:45;27.00;34.30
52963;DHT22;38827;53.024;6.596;2023-05-13T14:38:10;27.10;34.50
52963;DHT22;38827;53.024;6.596;2023-05-13T14:40:37;27.00;34.10
52963;DHT22;38827;53.024;6.596;2023-05-13T14:43:03;26.90;34.00
52963;DHT22;38827;53.024;6.596;2023-05-13T14:45:28;26.90;33.80
52963;DHT22;38827;53.024;6.596;2023-05-13T14:47:55;27.00;33.90
52963;DHT22;38827;53.024;6.596;2023-05-13T14:50:20;27.10;34.20
52963;DHT22;38827;53.024;6.596;2023-05-13T14:52:46;27.20;34.00
52963;DHT22;38827;53.024;6.596;2023-05-13T14:55:12;27.20;33.70
52963;DHT22;38827;53.024;6.596;2023-05-13T14:57:38;27.20;34.00
52963;DHT22;38827;53.024;6.596;2023-05-13T15:00:04;27.10;34.40
52963;DHT22;38827;53.024;6.596;2023-05-13T15:02:30;26.90;35.10
52963;DHT22;38827;53.024;6.596;2023-05-13T15:04:55;26.70;35.00
52963;DHT22;38827;53.024;6.596;2023-05-13T15:07:21;26.50;35.50
52963;DHT22;38827;53.024;6.596;2023-05-13T15:09:46;26.40;35.50
52963;DHT22;38827;53.024;6.596;2023-05-13T15:12:12;26.30;35.90
52963;DHT22;38827;53.024;6.596;2023-05-13T15:14:38;26.20;35.30
52963;DHT22;38827;53.024;6.596;2023-05-13T15:17:04;26.20;35.20
52963;DHT22;38827;53.024;6.596;2023-05-13T15:19:30;26.20;34.90
52963;DHT22;38827;53.024;6.596;2023-05-13T15:21:56;26.10;34.80
52963;DHT22;38827;53.024;6.596;2023-05-13T15:24:21;26.10;34.90
52963;DHT22;38827;53.024;6.596;2023-05-13T15:26:48;26.00;34.90
52963;DHT22;38827;53.024;6.596;2023-05-13T15:29:14;26.00;35.10
52963;DHT22;38827;53.024;6.596;2023-05-13T15:31:41;25.90;34.40
52963;DHT22;38827;53.024;6.596;2023-05-13T15:34:06;25.80;34.40
52963;DHT22;38827;53.024;6.596;2023-05-13T15:36:35;25.80;33.80
52963;DHT22;38827;53.024;6.596;2023-05-13T15:39:00;25.70;33.60
52963;DHT22;38827;53.024;6.596;2023-05-13T15:41:26;25.70;33.30
52963;DHT22;38827;53.024;6.596;2023-05-13T15:43:52;25.60;32.70
52963;DHT22;38827;53.024;6.596;2023-05-13T15:46:17;25.50;32.40
52963;DHT22;38827;53.024;6.596;2023-05-13T15:48:43;25.40;32.80
52963;DHT22;38827;53.024;6.596;2023-05-13T15:51:12;25.30;33.10
52963;DHT22;38827;53.024;6.596;2023-05-13T15:53:37;25.20;33.90
52963;DHT22;38827;53.024;6.596;2023-05-13T15:56:03;25.20;34.30
52963;DHT22;38827;53.024;6.596;2023-05-13T15:58:29;25.10;34.60
52963;DHT22;38827;53.024;6.596;2023-05-13T16:00:54;25.00;34.70